createdAt,value
2023-04-04T00:00:22.766Z,60.77
2023-04-04T00:01:22.766Z,61.40
2023-04-04T00:02:22.811Z,62.23
2023-04-04T00:03:22.878Z,61.60
2023-04-04T00:04:22.786Z,61.08
2023-04-04T00:05:22.721Z,61.29
2023-04-04T00:06:22.694Z,60.77
2023-04-04T00:07:22.697Z,60.87
2023-04-04T00:08:22.696Z,60.63
2023-04-04T00:09:22.751Z,60.97
2023-04-04T00:10:23.621Z,60.46
2023-04-04T00:11:22.684Z,60.66
2023-04-04T00:12:24.761Z,60.87
2023-04-04T00:13:22.620Z,61.18
2023-04-04T00:14:22.637Z,60.77
2023-04-04T00:15:22.600Z,60.56
2023-04-04T00:16:22.627Z,61.42
2023-04-04T00:17:22.553Z,62.36
2023-04-04T00:18:22.620Z,62.15
2023-04-04T00:19:22.577Z,62.26
2023-04-04T00:20:23.529Z,62.26
2023-04-04T00:21:22.544Z,61.91
2023-04-04T00:22:22.511Z,61.18
2023-04-04T00:23:22.507Z,61.63
2023-04-04T00:24:22.543Z,61.08
2023-04-04T00:25:22.529Z,61.81
2023-04-04T00:26:22.485Z,62.26
2023-04-04T00:27:22.479Z,61.21
2023-04-04T00:28:22.542Z,60.80
2023-04-04T00:29:22.522Z,60.97
2023-04-04T00:30:22.425Z,61.21
2023-04-04T00:31:22.504Z,60.80
2023-04-04T00:32:22.537Z,61.60
2023-04-04T00:33:22.439Z,61.52
2023-04-04T00:34:22.430Z,62.15
2023-04-04T00:35:22.433Z,61.94
2023-04-04T00:36:22.360Z,62.57
2023-04-04T00:37:22.391Z,62.88
2023-04-04T00:38:22.351Z,63.71
2023-04-04T00:39:22.321Z,63.61
2023-04-04T00:40:22.321Z,63.40
2023-04-04T00:41:22.334Z,63.30
2023-04-04T00:42:22.389Z,63.61
2023-04-04T00:43:22.285Z,62.91
2023-04-04T00:44:22.285Z,63.32
2023-04-04T00:45:22.352Z,64.58
2023-04-04T00:46:22.260Z,64.69
2023-04-04T00:47:22.307Z,63.64
2023-04-04T00:48:22.254Z,63.12
2023-04-04T00:49:22.216Z,63.95
2023-04-04T00:50:22.214Z,64.37
2023-04-04T00:51:22.214Z,65.10
2023-04-04T00:52:22.229Z,64.89
2023-04-04T00:53:23.179Z,65.94
2023-04-04T00:54:22.157Z,65.62
2023-04-04T00:55:22.172Z,65.20
2023-04-04T00:56:22.438Z,66.25
2023-04-04T00:57:22.151Z,66.25
2023-04-04T00:58:22.317Z,66.25
2023-04-04T00:59:22.191Z,67.08
2023-04-04T01:00:22.129Z,66.88
2023-04-04T01:01:22.183Z,67.05
2023-04-04T01:02:22.098Z,67.71
2023-04-04T01:03:22.086Z,66.98
2023-04-04T01:04:22.130Z,67.29
2023-04-04T01:05:22.026Z,67.19
2023-04-04T01:06:22.040Z,67.19
2023-04-04T01:07:22.055Z,67.29
2023-04-04T01:08:22.037Z,67.60
2023-04-04T01:09:22.040Z,67.81
2023-04-04T01:10:21.993Z,67.40
2023-04-04T01:11:21.994Z,67.63
2023-04-04T01:12:21.985Z,67.19
2023-04-04T01:13:22.011Z,67.32
2023-04-04T01:14:21.995Z,68.26
2023-04-04T01:15:21.969Z,67.85
2023-04-04T01:16:22.019Z,68.16
2023-04-04T01:17:21.959Z,67.95
2023-04-04T01:18:21.920Z,67.74
2023-04-04T01:19:21.912Z,68.16
2023-04-04T01:20:21.897Z,67.95
2023-04-04T01:21:21.932Z,67.95
2023-04-04T01:22:21.910Z,68.26
2023-04-04T01:23:21.834Z,68.68
2023-04-04T01:24:21.838Z,69.10
2023-04-04T01:25:21.936Z,69.82
2023-04-04T01:26:21.810Z,69.62
2023-04-04T01:27:21.814Z,69.76
2023-04-04T01:28:22.826Z,69.76
2023-04-04T01:29:21.803Z,70.28
2023-04-04T01:30:21.816Z,70.04
2023-04-04T01:31:22.127Z,69.96
2023-04-04T01:32:21.796Z,69.93
2023-04-04T01:33:21.771Z,69.65
2023-04-04T01:34:21.742Z,68.71
2023-04-04T01:35:22.727Z,69.54
2023-04-04T01:36:21.774Z,68.92
2023-04-04T01:37:21.747Z,69.13
2023-04-04T01:38:21.710Z,69.76
2023-04-04T01:39:21.735Z,69.54
2023-04-04T01:40:21.721Z,69.65
2023-04-04T01:41:21.721Z,68.74
2023-04-04T01:42:21.682Z,69.79
2023-04-04T01:43:21.662Z,69.68
2023-04-04T01:44:21.653Z,69.79
2023-04-04T01:45:21.609Z,70.00
2023-04-04T01:46:21.738Z,70.73
2023-04-04T01:47:21.621Z,70.73
2023-04-04T01:48:21.593Z,70.52
2023-04-04T01:49:21.600Z,71.46
2023-04-04T01:50:21.619Z,72.22
2023-04-04T01:51:21.614Z,72.61
2023-04-04T01:52:21.578Z,72.33
2023-04-04T01:53:21.565Z,72.53
2023-04-04T01:54:21.545Z,72.92
2023-04-04T01:55:21.544Z,73.16
2023-04-04T01:56:21.560Z,74.18
2023-04-04T01:57:21.524Z,73.44
2023-04-04T01:58:21.518Z,74.10
2023-04-04T01:59:21.516Z,74.73
2023-04-04T02:00:21.482Z,74.52
2023-04-04T02:01:21.475Z,75.04
2023-04-04T02:02:21.487Z,75.26
2023-04-04T02:03:21.447Z,75.15
2023-04-04T02:04:21.478Z,75.36
2023-04-04T02:05:21.446Z,75.26
2023-04-04T02:06:21.396Z,75.39
2023-04-04T02:07:21.414Z,75.57
2023-04-04T02:08:21.411Z,76.20
2023-04-04T02:09:22.167Z,75.88
2023-04-04T02:10:21.377Z,76.23
2023-04-04T02:11:21.398Z,76.12
2023-04-04T02:12:21.345Z,76.23
2023-04-04T02:13:21.379Z,76.75
2023-04-04T02:14:21.326Z,76.33
2023-04-04T02:15:21.313Z,76.33
2023-04-04T02:16:21.391Z,76.75
2023-04-04T02:17:21.339Z,76.44
2023-04-04T02:18:21.298Z,76.33
2023-04-04T02:19:21.270Z,76.44
2023-04-04T02:20:21.270Z,76.26
2023-04-04T02:21:21.263Z,76.57
2023-04-04T02:22:21.268Z,76.47
2023-04-04T02:23:21.220Z,76.57
2023-04-04T02:24:21.196Z,77.20
2023-04-04T02:25:21.235Z,77.20
2023-04-04T02:26:21.344Z,77.31
2023-04-04T02:27:22.171Z,76.47
2023-04-04T02:28:21.164Z,75.92
2023-04-04T02:29:21.184Z,75.32
2023-04-04T02:30:21.187Z,75.32
2023-04-04T02:31:21.176Z,75.11
2023-04-04T02:32:21.126Z,75.11
2023-04-04T02:33:21.110Z,75.32
2023-04-04T02:34:21.090Z,75.01
2023-04-04T02:35:21.147Z,74.80
2023-04-04T02:36:21.728Z,74.80
2023-04-04T02:37:21.057Z,74.90
2023-04-04T02:38:21.066Z,74.80
2023-04-04T02:39:21.118Z,75.25
2023-04-04T02:40:21.024Z,75.53
2023-04-04T02:41:21.024Z,75.32
2023-04-04T02:42:20.995Z,75.53
2023-04-04T02:43:22.028Z,75.01
2023-04-04T02:44:21.023Z,75.11
2023-04-04T02:45:20.986Z,75.32
2023-04-04T02:46:22.202Z,75.11
2023-04-04T02:47:21.953Z,75.04
2023-04-04T02:48:20.967Z,74.90
2023-04-04T02:49:20.940Z,75.32
2023-04-04T02:50:20.923Z,75.43
2023-04-04T02:51:20.921Z,75.01
2023-04-04T02:52:20.878Z,74.69
2023-04-04T02:53:21.691Z,74.69
2023-04-04T02:54:20.878Z,75.25
2023-04-04T02:55:20.896Z,75.25
2023-04-04T02:56:21.939Z,75.04
2023-04-04T02:57:20.883Z,75.53
2023-04-04T02:58:20.851Z,75.01
2023-04-04T02:59:20.950Z,74.94
2023-04-04T03:00:20.831Z,75.15
2023-04-04T03:01:20.851Z,75.25
2023-04-04T03:02:20.933Z,75.35
2023-04-04T03:03:21.009Z,75.04
2023-04-04T03:04:20.806Z,75.01
2023-04-04T03:05:20.794Z,75.15
2023-04-04T03:06:20.956Z,74.84
2023-04-04T03:07:20.846Z,75.04
2023-04-04T03:08:20.851Z,75.15
2023-04-04T03:09:20.712Z,75.04
2023-04-04T03:10:20.749Z,74.62
2023-04-04T03:11:20.739Z,74.62
2023-04-04T03:12:20.746Z,74.94
2023-04-04T03:13:20.710Z,74.94
2023-04-04T03:14:20.975Z,74.84
2023-04-04T03:15:20.946Z,75.04
2023-04-04T03:16:20.775Z,74.52
2023-04-04T03:17:20.715Z,74.73
2023-04-04T03:18:20.637Z,75.25
2023-04-04T03:19:21.936Z,75.04
2023-04-04T03:20:20.668Z,75.04
2023-04-04T03:21:20.609Z,75.25
2023-04-04T03:22:20.666Z,75.46
2023-04-04T03:23:20.623Z,75.35
2023-04-04T03:24:20.785Z,75.25
2023-04-04T03:25:20.599Z,76.09
2023-04-04T03:26:20.560Z,75.67
2023-04-04T03:27:20.634Z,76.30
2023-04-04T03:28:20.592Z,76.09
2023-04-04T03:29:20.788Z,75.67
2023-04-04T03:30:20.592Z,75.81
2023-04-04T03:31:20.684Z,75.98
2023-04-04T03:32:20.481Z,76.75
2023-04-04T03:33:20.555Z,76.51
2023-04-04T03:34:21.599Z,76.40
2023-04-04T03:35:20.506Z,77.28
2023-04-04T03:36:20.539Z,76.65
2023-04-04T03:37:20.482Z,77.55
2023-04-04T03:38:20.422Z,77.45
2023-04-04T03:39:20.449Z,77.24
2023-04-04T03:40:20.533Z,77.14
2023-04-04T03:41:20.442Z,77.69
2023-04-04T03:42:20.491Z,78.01
2023-04-04T03:43:20.383Z,78.01
2023-04-04T03:44:20.401Z,78.01
2023-04-04T03:45:20.377Z,78.53
2023-04-04T03:46:20.431Z,78.53
2023-04-04T03:47:20.572Z,78.43
2023-04-04T03:48:20.443Z,78.64
2023-04-04T03:49:20.316Z,78.53
2023-04-04T03:50:20.333Z,78.64
2023-04-04T03:51:20.324Z,78.67
2023-04-04T03:52:20.291Z,79.16
2023-04-04T03:53:20.291Z,79.58
2023-04-04T03:54:20.311Z,79.27
2023-04-04T03:55:20.274Z,79.68
2023-04-04T03:56:20.287Z,79.79
2023-04-04T03:57:20.262Z,79.58
2023-04-04T03:58:20.246Z,79.90
2023-04-04T03:59:20.256Z,79.20
2023-04-04T04:00:20.254Z,79.90
2023-04-04T04:01:20.247Z,79.68
2023-04-04T04:02:20.237Z,80.00
2023-04-04T04:03:20.226Z,80.04
2023-04-04T04:04:21.329Z,79.90
2023-04-04T04:05:20.150Z,79.79
2023-04-04T04:06:20.153Z,79.61
2023-04-04T04:07:20.143Z,79.61
2023-04-04T04:08:20.153Z,79.83
2023-04-04T04:09:20.084Z,80.04
2023-04-04T04:10:20.081Z,80.35
2023-04-04T04:11:20.075Z,80.00
2023-04-04T04:12:20.121Z,80.35
2023-04-04T04:13:20.081Z,80.35
2023-04-04T04:14:20.094Z,80.35
2023-04-04T04:15:20.029Z,80.14
2023-04-04T04:16:20.074Z,80.24
2023-04-04T04:17:20.051Z,80.24
2023-04-04T04:18:20.015Z,80.35
2023-04-04T04:19:20.049Z,79.61
2023-04-04T04:20:20.984Z,80.04
2023-04-04T04:21:19.969Z,80.35
2023-04-04T04:22:19.969Z,80.46
2023-04-04T04:23:19.958Z,80.04
2023-04-04T04:24:19.977Z,80.28
2023-04-04T04:25:19.988Z,80.14
2023-04-04T04:26:19.919Z,80.14
2023-04-04T04:27:19.964Z,80.66
2023-04-04T04:28:19.955Z,80.56
2023-04-04T04:29:20.097Z,80.66
2023-04-04T04:30:19.872Z,80.14
2023-04-04T04:31:20.560Z,80.77
2023-04-04T04:32:19.885Z,80.56
2023-04-04T04:33:19.848Z,79.93
2023-04-04T04:34:19.860Z,80.70
2023-04-04T04:35:19.817Z,81.12
2023-04-04T04:36:19.974Z,80.98
2023-04-04T04:37:19.826Z,80.98
2023-04-04T04:38:19.801Z,80.35
2023-04-04T04:39:19.790Z,80.28
2023-04-04T04:40:20.709Z,80.60
2023-04-04T04:41:19.767Z,79.93
2023-04-04T04:42:19.771Z,80.91
2023-04-04T04:43:19.773Z,81.12
2023-04-04T04:44:19.842Z,80.70
2023-04-04T04:45:19.736Z,80.49
2023-04-04T04:46:19.771Z,82.06
2023-04-04T04:47:19.738Z,80.77
2023-04-04T04:48:19.723Z,81.92
2023-04-04T04:49:19.737Z,80.91
2023-04-04T04:50:19.725Z,80.70
2023-04-04T04:51:19.692Z,80.35
2023-04-04T04:52:20.568Z,80.56
2023-04-04T04:53:19.678Z,80.77
2023-04-04T04:54:19.630Z,81.50
2023-04-04T04:55:19.647Z,80.80
2023-04-04T04:56:19.636Z,80.49
2023-04-04T04:57:19.648Z,81.50
2023-04-04T04:58:19.637Z,80.87
2023-04-04T04:59:19.726Z,81.33
2023-04-04T05:00:19.578Z,80.98
2023-04-04T05:01:19.608Z,80.98
2023-04-04T05:02:19.636Z,81.01
2023-04-04T05:03:19.620Z,80.66
2023-04-04T05:04:19.518Z,80.66
2023-04-04T05:05:19.582Z,80.56
2023-04-04T05:06:19.522Z,80.46
2023-04-04T05:07:19.530Z,80.24
2023-04-04T05:08:19.659Z,80.24
2023-04-04T05:09:19.534Z,79.58
2023-04-04T05:10:19.501Z,80.04
2023-04-04T05:11:19.536Z,80.10
2023-04-04T05:12:19.466Z,79.37
2023-04-04T05:13:19.452Z,78.43
2023-04-04T05:14:19.433Z,78.85
2023-04-04T05:15:19.414Z,78.74
2023-04-04T05:16:19.447Z,78.60
2023-04-04T05:17:19.442Z,78.70
2023-04-04T05:18:19.464Z,78.56
2023-04-04T05:19:19.435Z,78.01
2023-04-04T05:20:19.462Z,76.12
2023-04-04T05:21:19.336Z,74.56
2023-04-04T05:22:19.401Z,73.86
2023-04-04T05:23:19.411Z,71.75
2023-04-04T05:24:19.327Z,70.19
2023-04-04T05:25:19.319Z,70.29
2023-04-04T05:26:19.530Z,69.74
2023-04-04T05:27:19.309Z,70.19
2023-04-04T05:28:19.286Z,69.22
2023-04-04T05:29:19.321Z,68.63
2023-04-04T05:30:19.262Z,67.88
2023-04-04T05:31:19.254Z,67.05
2023-04-04T05:32:19.254Z,66.97
2023-04-04T05:33:19.223Z,67.63
2023-04-04T05:34:19.191Z,68.07
2023-04-04T05:35:19.228Z,68.49
2023-04-04T05:36:20.160Z,68.84
2023-04-04T05:37:19.294Z,69.56
2023-04-04T05:38:19.154Z,69.56
2023-04-04T05:39:19.203Z,69.40
2023-04-04T05:40:19.208Z,68.56
2023-04-04T05:41:19.154Z,67.15
2023-04-04T05:42:19.129Z,66.15
2023-04-04T05:43:19.195Z,65.19
2023-04-04T05:44:20.153Z,63.89
2023-04-04T05:45:51.558Z,62.40
2023-04-04T05:46:19.180Z,61.93
2023-04-04T05:47:20.079Z,60.66
2023-04-04T05:48:19.115Z,59.95
2023-04-04T05:49:19.037Z,58.61
2023-04-04T05:50:19.077Z,57.86
2023-04-04T05:51:19.108Z,56.49
2023-04-04T05:52:18.998Z,56.29
2023-04-04T05:53:19.004Z,56.60
2023-04-04T05:54:19.036Z,56.08
2023-04-04T05:55:19.033Z,55.66
2023-04-04T05:56:19.021Z,55.64
2023-04-04T05:57:18.984Z,55.41
2023-04-04T05:58:19.002Z,54.12
2023-04-04T05:59:19.051Z,53.04
2023-04-04T06:00:18.940Z,51.55
2023-04-04T06:01:18.964Z,50.81
2023-04-04T06:02:18.962Z,50.06
2023-04-04T06:03:21.670Z,48.99
2023-04-04T06:04:19.915Z,48.25
2023-04-04T06:05:18.923Z,47.34
2023-04-04T06:06:18.951Z,47.24
2023-04-04T06:07:18.915Z,46.42
2023-04-04T06:08:18.821Z,47.06
2023-04-04T06:09:18.930Z,47.91
2023-04-04T06:10:18.848Z,46.47
2023-04-04T06:11:18.820Z,48.50
2023-04-04T06:12:18.825Z,47.08
2023-04-04T06:13:18.799Z,47.29
2023-04-04T06:14:18.781Z,48.32
2023-04-04T06:15:18.833Z,47.92
2023-04-04T06:16:18.958Z,48.85
2023-04-04T06:17:18.754Z,49.49
2023-04-04T06:18:18.737Z,49.37
2023-04-04T06:19:20.151Z,50.03
2023-04-04T06:20:18.774Z,49.82
2023-04-04T06:21:18.748Z,49.08
2023-04-04T06:22:18.733Z,47.64
2023-04-04T06:23:18.678Z,49.82
2023-04-04T06:24:18.670Z,49.85
2023-04-04T06:25:18.731Z,49.56
2023-04-04T06:26:18.670Z,49.99
2023-04-04T06:27:18.656Z,50.56
2023-04-04T06:28:18.659Z,51.54
2023-04-04T06:29:19.512Z,53.50
2023-04-04T06:30:19.543Z,53.13
2023-04-04T06:31:18.624Z,53.34
2023-04-04T06:32:18.573Z,53.86
2023-04-04T06:33:18.563Z,53.67
2023-04-04T06:34:18.553Z,54.17
2023-04-04T06:35:20.131Z,53.42
2023-04-04T06:36:19.641Z,53.00
2023-04-04T06:37:18.507Z,53.19
2023-04-04T06:38:18.532Z,51.82
2023-04-04T06:39:18.546Z,52.34
2023-04-04T06:40:18.563Z,51.67
2023-04-04T06:41:18.503Z,51.62
2023-04-04T06:42:18.517Z,51.18
2023-04-04T06:43:18.532Z,50.88
2023-04-04T06:44:18.585Z,51.16
2023-04-04T06:45:18.445Z,49.52
2023-04-04T06:46:18.452Z,49.18
2023-04-04T06:47:18.524Z,49.06
2023-04-04T06:48:18.499Z,47.41
2023-04-04T06:49:18.396Z,47.41
2023-04-04T06:50:18.469Z,47.20
2023-04-04T06:51:18.388Z,48.05
2023-04-04T06:52:18.358Z,48.80
2023-04-04T06:53:18.409Z,49.10
2023-04-04T06:54:18.348Z,48.80
2023-04-04T06:55:18.354Z,47.74
2023-04-04T06:56:18.357Z,48.18
2023-04-04T06:57:18.399Z,47.85
2023-04-04T06:58:18.368Z,47.72
2023-04-04T06:59:18.320Z,47.92
2023-04-04T07:00:19.305Z,48.21
2023-04-04T07:01:18.264Z,47.45
2023-04-04T07:02:18.281Z,47.20
2023-04-04T07:03:18.304Z,45.95
2023-04-04T07:04:18.250Z,45.09
2023-04-04T07:05:18.322Z,44.55
2023-04-04T07:06:18.221Z,44.73
2023-04-04T07:07:18.209Z,44.73
2023-04-04T07:08:18.242Z,43.30
2023-04-04T07:09:27.940Z,44.51
2023-04-04T07:10:20.150Z,43.47
2023-04-04T07:11:18.187Z,43.28
2023-04-04T07:12:18.141Z,42.69
2023-04-04T07:13:18.151Z,43.90
2023-04-04T07:14:18.133Z,43.08
2023-04-04T07:15:18.193Z,42.97
2023-04-04T07:16:18.147Z,43.24
2023-04-04T07:17:24.684Z,42.12
2023-04-04T07:18:20.141Z,42.00
2023-04-04T07:19:18.135Z,42.34
2023-04-04T07:20:19.058Z,42.48
2023-04-04T07:21:18.015Z,42.67
2023-04-04T07:22:18.146Z,43.28
2023-04-04T07:23:18.139Z,42.16
2023-04-04T07:24:18.662Z,42.22
2023-04-04T07:25:17.993Z,42.20
2023-04-04T07:26:18.008Z,40.10
2023-04-04T07:27:18.013Z,40.00
2023-04-04T07:28:18.086Z,40.01
2023-04-04T07:29:17.997Z,40.00
2023-04-04T07:30:17.976Z,40.17
2023-04-04T07:31:17.995Z,40.33
2023-04-04T07:32:17.945Z,36.90
2023-04-04T07:33:17.910Z,38.65
2023-04-04T07:34:17.949Z,38.98
2023-04-04T07:35:17.894Z,38.57
2023-04-04T07:36:17.949Z,40.08
2023-04-04T07:37:17.866Z,38.96
2023-04-04T07:38:17.865Z,39.25
2023-04-04T07:39:17.864Z,38.51
2023-04-04T07:40:17.927Z,39.09
2023-04-04T07:41:17.807Z,38.29
2023-04-04T07:42:18.076Z,39.19
2023-04-04T07:43:17.817Z,36.71
2023-04-04T07:44:17.796Z,37.10
2023-04-04T07:45:17.778Z,36.29
2023-04-04T07:46:17.843Z,37.63
2023-04-04T07:47:17.776Z,36.82
2023-04-04T07:48:17.747Z,37.82
2023-04-04T07:49:17.743Z,35.56
2023-04-04T07:50:17.802Z,35.16
2023-04-04T07:51:17.753Z,34.99
2023-04-04T07:52:17.719Z,36.29
2023-04-04T07:53:17.728Z,37.28
2023-04-04T07:54:18.231Z,39.58
2023-04-04T07:55:17.807Z,39.26
2023-04-04T07:56:17.691Z,41.22
2023-04-04T07:57:17.633Z,38.24
2023-04-04T07:58:17.643Z,38.21
2023-04-04T07:59:17.648Z,37.68
2023-04-04T08:00:17.638Z,36.34
2023-04-04T08:01:17.670Z,36.82
2023-04-04T08:02:17.638Z,37.39
2023-04-04T08:03:17.777Z,36.58
2023-04-04T08:04:17.607Z,35.16
2023-04-04T08:05:17.583Z,35.39
2023-04-04T08:06:17.569Z,36.12
2023-04-04T08:07:17.547Z,36.43
2023-04-04T08:08:17.544Z,35.93
2023-04-04T08:09:17.542Z,36.66
2023-04-04T08:10:17.762Z,36.63
2023-04-04T08:11:17.532Z,34.61
2023-04-04T08:12:17.489Z,36.46
2023-04-04T08:13:17.460Z,36.95
2023-04-04T08:14:17.469Z,36.97
2023-04-04T08:15:17.476Z,36.36
2023-04-04T08:16:17.511Z,36.34
2023-04-04T08:17:17.460Z,35.60
2023-04-04T08:18:17.406Z,33.46
2023-04-04T08:19:17.435Z,33.90
2023-04-04T08:20:17.408Z,35.06
2023-04-04T08:21:17.444Z,36.32
2023-04-04T08:22:17.412Z,38.04
2023-04-04T08:23:17.361Z,36.36
2023-04-04T08:24:17.347Z,37.17
2023-04-04T08:25:17.369Z,33.08
2023-04-04T08:26:17.342Z,34.91
2023-04-04T08:27:17.350Z,36.51
2023-04-04T08:28:17.410Z,33.81
2023-04-04T08:29:17.324Z,33.10
2023-04-04T08:30:17.319Z,35.10
2023-04-04T08:31:17.346Z,34.38
2023-04-04T08:32:17.325Z,33.05
2023-04-04T08:33:17.384Z,32.79
2023-04-04T08:34:19.114Z,34.56
2023-04-04T08:35:18.754Z,35.31
2023-04-04T08:36:17.584Z,34.53
2023-04-04T08:37:17.384Z,33.79
2023-04-04T08:38:17.715Z,32.99
2023-04-04T08:39:17.509Z,34.22
2023-04-04T08:40:17.517Z,33.48
2023-04-04T08:41:17.469Z,33.94
2023-04-04T08:42:17.406Z,30.27
2023-04-04T08:43:17.469Z,32.29
2023-04-04T08:44:17.441Z,30.18
2023-04-04T08:45:17.390Z,32.15
2023-04-04T08:46:17.458Z,32.95
2023-04-04T08:47:17.199Z,32.71
2023-04-04T08:48:17.356Z,31.29
2023-04-04T08:49:17.331Z,31.48
2023-04-04T08:50:17.170Z,30.94
2023-04-04T08:51:17.274Z,31.15
2023-04-04T08:52:17.325Z,31.35
2023-04-04T08:53:17.167Z,30.90
2023-04-04T08:54:17.281Z,29.08
2023-04-04T08:55:17.327Z,29.37
2023-04-04T08:56:17.070Z,32.79
2023-04-04T08:57:17.129Z,32.26
2023-04-04T08:58:17.074Z,30.09
2023-04-04T08:59:17.127Z,31.40
2023-04-04T09:00:17.376Z,32.14
2023-04-04T09:01:17.463Z,31.28
2023-04-04T09:02:17.931Z,37.32
2023-04-04T09:03:17.617Z,42.08
2023-04-04T09:04:17.396Z,41.57
2023-04-04T09:05:17.277Z,39.87
2023-04-04T09:06:17.357Z,39.03
2023-04-04T09:07:17.096Z,37.19
2023-04-04T09:08:18.511Z,34.17
2023-04-04T09:09:17.298Z,36.49
2023-04-04T09:10:17.132Z,35.13
2023-04-04T09:11:17.202Z,35.95
2023-04-04T09:12:17.192Z,35.06
2023-04-04T09:13:17.647Z,36.51
2023-04-04T09:14:17.503Z,37.87
2023-04-04T09:15:16.935Z,36.80
2023-04-04T09:16:17.562Z,35.54
2023-04-04T09:17:17.794Z,37.76
2023-04-04T09:18:16.751Z,38.03
2023-04-04T09:19:16.755Z,36.99
2023-04-04T09:20:16.739Z,38.18
2023-04-04T09:21:16.741Z,36.90
2023-04-04T09:22:16.704Z,35.95
2023-04-04T09:23:16.700Z,34.34
2023-04-04T09:24:16.680Z,34.80
2023-04-04T09:25:16.861Z,32.93
2023-04-04T09:26:16.680Z,33.07
2023-04-04T09:27:16.685Z,32.82
2023-04-04T09:28:16.663Z,33.74
2023-04-04T09:29:16.643Z,31.56
2023-04-04T09:30:16.744Z,32.87
2023-04-04T09:31:16.629Z,34.78
2023-04-04T09:32:16.619Z,34.66
2023-04-04T09:33:16.625Z,32.29
2023-04-04T09:34:16.645Z,33.07
2023-04-04T09:35:16.600Z,30.76
2023-04-04T09:36:18.170Z,33.14
2023-04-04T09:37:17.556Z,33.14
2023-04-04T09:38:16.564Z,33.34
2023-04-04T09:39:16.571Z,34.10
2023-04-04T09:40:16.520Z,35.39
2023-04-04T09:41:16.559Z,32.11
2023-04-04T09:42:16.758Z,33.74
2023-04-04T09:43:16.530Z,35.31
2023-04-04T09:44:16.497Z,35.05
2023-04-04T09:45:22.246Z,33.38
2023-04-04T09:46:18.495Z,33.64
2023-04-04T09:47:27.758Z,33.92
2023-04-04T09:48:17.432Z,32.32
2023-04-04T09:49:17.160Z,30.68
2023-04-04T09:50:16.410Z,29.64
2023-04-04T09:51:16.430Z,29.34
2023-04-04T09:52:16.397Z,30.13
2023-04-04T09:53:16.378Z,28.69
2023-04-04T09:54:29.127Z,29.91
2023-04-04T09:55:18.420Z,30.54
2023-04-04T09:56:16.394Z,32.67
2023-04-04T09:57:16.357Z,30.13
2023-04-04T09:58:17.129Z,30.83
2023-04-04T09:59:16.416Z,31.60
2023-04-04T10:00:16.364Z,32.39
2023-04-04T10:01:16.323Z,33.26
2023-04-04T10:02:16.304Z,35.47
2023-04-04T10:03:16.746Z,35.82
2023-04-04T10:04:16.326Z,34.84
2023-04-04T10:05:16.261Z,34.80
2023-04-04T10:06:16.266Z,33.00
2023-04-04T10:07:16.248Z,32.42
2023-04-04T10:08:16.247Z,33.11
2023-04-04T10:09:16.356Z,34.17
2023-04-04T10:10:16.263Z,33.98
2023-04-04T10:11:16.220Z,37.27
2023-04-04T10:12:16.202Z,33.46
2023-04-04T10:13:16.159Z,35.17
2023-04-04T10:14:16.173Z,32.47
2023-04-04T10:15:16.192Z,35.25
2023-04-04T10:16:16.201Z,38.06
2023-04-04T10:17:16.162Z,34.24
2023-04-04T10:18:16.144Z,33.92
2023-04-04T10:19:16.141Z,34.83
2023-04-04T10:20:16.119Z,32.18
2023-04-04T10:21:16.251Z,35.63
2023-04-04T10:22:16.090Z,33.67
2023-04-04T10:23:16.140Z,33.87
2023-04-04T10:24:16.117Z,33.01
2023-04-04T10:25:16.055Z,31.41
2023-04-04T10:26:16.032Z,33.52
2023-04-04T10:27:16.014Z,31.49
2023-04-04T10:28:16.022Z,31.09
2023-04-04T10:29:16.013Z,31.93
2023-04-04T10:30:15.989Z,29.82
2023-04-04T10:31:15.995Z,32.71
2023-04-04T10:32:15.956Z,34.12
2023-04-04T10:33:15.987Z,31.74
2023-04-04T10:34:15.969Z,30.15
2023-04-04T10:35:16.014Z,34.80
2023-04-04T10:36:16.002Z,33.26
2023-04-04T10:37:15.937Z,34.16
2023-04-04T10:38:16.293Z,34.92
2023-04-04T10:39:16.084Z,32.70
2023-04-04T10:40:16.087Z,33.40
2023-04-04T10:41:16.081Z,31.96
2023-04-04T10:42:16.135Z,30.12
2023-04-04T10:43:16.093Z,31.62
2023-04-04T10:44:16.143Z,33.43
2023-04-04T10:45:21.195Z,32.53
2023-04-04T10:46:17.974Z,31.81
2023-04-04T10:47:15.953Z,29.00
2023-04-04T10:48:16.174Z,28.19
2023-04-04T10:49:16.098Z,29.92
2023-04-04T10:50:15.970Z,27.62
2023-04-04T10:51:16.177Z,32.78
2023-04-04T10:52:16.286Z,32.46
2023-04-04T10:53:16.098Z,32.65
2023-04-04T10:54:16.061Z,31.34
2023-04-04T10:55:16.182Z,32.85
2023-04-04T10:56:16.048Z,30.15
2023-04-04T10:57:16.547Z,29.76
2023-04-04T10:58:16.026Z,30.07
2023-04-04T10:59:16.095Z,28.98
2023-04-04T11:00:15.949Z,30.64
2023-04-04T11:01:15.933Z,33.99
2023-04-04T11:02:16.410Z,32.56
2023-04-04T11:03:15.924Z,30.19
2023-04-04T11:04:17.340Z,32.72
2023-04-04T11:05:15.839Z,33.40
2023-04-04T11:06:15.862Z,33.97
2023-04-04T11:07:16.258Z,35.88
2023-04-04T11:08:15.854Z,33.73
2023-04-04T11:09:15.824Z,31.41
2023-04-04T11:10:15.809Z,32.87
2023-04-04T11:11:22.594Z,32.15
2023-04-04T11:12:17.853Z,33.70
2023-04-04T11:13:15.883Z,36.24
2023-04-04T11:14:16.058Z,33.25
2023-04-04T11:15:15.705Z,32.91
2023-04-04T11:16:15.946Z,36.10
2023-04-04T11:17:15.566Z,32.62
2023-04-04T11:18:30.493Z,32.57
2023-04-04T11:19:17.600Z,33.80
2023-04-04T11:20:15.797Z,31.41
2023-04-04T11:21:15.713Z,32.75
2023-04-04T11:22:15.689Z,33.16
2023-04-04T11:23:15.577Z,31.72
2023-04-04T11:24:16.659Z,31.53
2023-04-04T11:25:15.691Z,31.99
2023-04-04T11:26:15.637Z,33.71
2023-04-04T11:27:15.410Z,36.05
2023-04-04T11:28:15.618Z,36.51
2023-04-04T11:29:15.524Z,38.93
2023-04-04T11:30:15.696Z,42.71
2023-04-04T11:31:15.406Z,38.74
2023-04-04T11:32:15.486Z,37.77
2023-04-04T11:33:15.587Z,35.92
2023-04-04T11:34:15.400Z,34.87
2023-04-04T11:35:15.451Z,36.76
2023-04-04T11:36:15.476Z,36.10
2023-04-04T11:37:15.333Z,34.87
2023-04-04T11:38:15.341Z,32.25
2023-04-04T11:39:15.476Z,32.23
2023-04-04T11:40:15.462Z,32.34
2023-04-04T11:41:15.360Z,31.45
2023-04-04T11:42:15.405Z,33.38
2023-04-04T11:43:15.568Z,33.87
2023-04-04T11:44:15.583Z,33.35
2023-04-04T11:45:15.357Z,30.86
2023-04-04T11:46:15.438Z,33.09
2023-04-04T11:47:16.472Z,35.53
2023-04-04T11:48:15.293Z,34.58
2023-04-04T11:49:15.503Z,34.77
2023-04-04T11:50:15.309Z,30.44
2023-04-04T11:51:15.247Z,36.02
2023-04-04T11:52:15.220Z,34.61
2023-04-04T11:53:15.242Z,33.23
2023-04-04T11:54:15.249Z,34.74
2023-04-04T11:55:15.228Z,32.79
2023-04-04T11:56:15.362Z,32.59
2023-04-04T11:57:15.159Z,32.29
2023-04-04T11:58:15.160Z,31.93
2023-04-04T11:59:15.420Z,32.69
2023-04-04T12:00:15.164Z,32.48
2023-04-04T12:01:15.143Z,34.96
2023-04-04T12:02:15.121Z,36.65
2023-04-04T12:03:15.340Z,38.90
2023-04-04T12:04:15.119Z,33.91
2023-04-04T12:05:16.836Z,35.12
2023-04-04T12:06:15.026Z,35.90
2023-04-04T12:07:15.081Z,32.37
2023-04-04T12:08:15.093Z,37.75
2023-04-04T12:09:15.044Z,35.02
2023-04-04T12:10:15.153Z,36.34
2023-04-04T12:11:15.235Z,32.68
2023-04-04T12:12:15.069Z,33.99
2023-04-04T12:13:15.070Z,40.34
2023-04-04T12:14:15.039Z,38.23
2023-04-04T12:15:17.710Z,37.54
2023-04-04T12:16:15.990Z,36.39
2023-04-04T12:17:15.016Z,32.31
2023-04-04T12:18:15.030Z,34.09
2023-04-04T12:19:15.025Z,36.31
2023-04-04T12:20:14.948Z,34.17
2023-04-04T12:21:15.053Z,32.76
2023-04-04T12:22:15.009Z,33.87
2023-04-04T12:23:15.725Z,34.75
2023-04-04T12:24:14.972Z,34.77
2023-04-04T12:25:14.900Z,32.83
2023-04-04T12:26:14.824Z,33.53
2023-04-04T12:27:14.959Z,36.36
2023-04-04T12:28:14.857Z,34.74
2023-04-04T12:29:14.797Z,32.82
2023-04-04T12:30:15.001Z,31.77
2023-04-04T12:31:14.868Z,33.39
2023-04-04T12:32:14.868Z,32.40
2023-04-04T12:33:14.807Z,34.05
2023-04-04T12:34:15.138Z,39.51
2023-04-04T12:35:14.918Z,38.28
2023-04-04T12:36:14.875Z,33.68
2023-04-04T12:37:14.839Z,34.12
2023-04-04T12:38:14.765Z,36.08
2023-04-04T12:39:14.824Z,37.02
2023-04-04T12:40:14.831Z,38.40
2023-04-04T12:41:14.779Z,39.40
2023-04-04T12:42:14.718Z,38.83
2023-04-04T12:43:14.716Z,36.58
2023-04-04T12:44:14.787Z,32.95
2023-04-04T12:45:14.716Z,32.91
2023-04-04T12:46:14.639Z,33.06
2023-04-04T12:47:14.610Z,34.91
2023-04-04T12:48:14.794Z,33.87
2023-04-04T12:49:14.868Z,33.34
2023-04-04T12:50:14.716Z,35.06
2023-04-04T12:51:14.638Z,37.23
2023-04-04T12:52:15.607Z,36.92